Time,TemperatureF,DewpointF,PressureIn,WindDirection,WindDirectionDegrees,WindSpeedMPH,WindSpeedGustMPH,Humidity,HourlyPrecipIn,Conditions,Clouds,dailyrainin,SoftwareType,DateUTC
2013-07-27 00:00:00,56.7,50.0,30.62,NNE,30,0.0,0.0,77,0.00,,,-99.99,wx200d/1.3,2013-07-27 07:00:00,
2013-07-27 00:15:00,56.7,50.0,30.62,West,263,0.0,0.0,78,0.00,,,-99.99,wx200d/1.3,2013-07-27 07:15:00,
2013-07-27 00:30:00,56.5,50.0,30.62,West,270,0.0,0.0,79,0.00,,,-99.99,wx200d/1.3,2013-07-27 07:30:00,
2013-07-27 00:45:00,56.3,52.0,30.62,West,279,0.0,0.0,80,0.00,,,-99.99,wx200d/1.3,2013-07-27 07:45:00,
2013-07-27 01:00:00,56.3,52.0,30.62,NNE,21,0.0,0.0,80,0.00,,,-99.99,wx200d/1.3,2013-07-27 08:00:00,
2013-07-27 01:15:00,56.1,50.0,30.62,West,275,0.0,0.0,81,0.00,,,-99.99,wx200d/1.3,2013-07-27 08:15:00,
2013-07-27 01:30:00,55.9,50.0,30.59,West,273,0.0,0.0,81,0.00,,,-99.99,wx200d/1.3,2013-07-27 08:30:00,
2013-07-27 01:45:00,55.9,50.0,30.62,WSW,257,0.0,0.0,81,0.00,,,-99.99,wx200d/1.3,2013-07-27 08:45:00,
2013-07-27 02:00:00,55.9,50.0,30.62,ENE,78,0.0,0.0,82,0.00,,,-99.99,wx200d/1.3,2013-07-27 09:00:00,
2013-07-27 02:15:00,55.9,50.0,30.59,ENE,76,0.0,0.0,82,0.00,,,-99.99,wx200d/1.3,2013-07-27 09:15:00,
2013-07-27 02:30:00,55.9,50.0,30.59,East,87,2.2,2.7,82,0.00,,,-99.99,wx200d/1.3,2013-07-27 09:30:00,
2013-07-27 02:45:00,55.9,50.0,30.59,WNW,287,0.0,0.0,83,0.00,,,-99.99,wx200d/1.3,2013-07-27 09:45:00,
2013-07-27 03:00:00,56.1,50.0,30.59,WNW,289,0.0,0.0,83,0.00,,,-99.99,wx200d/1.3,2013-07-27 10:00:00,
2013-07-27 03:15:00,56.3,52.0,30.59,WNW,289,0.0,0.0,84,0.00,,,-99.99,wx200d/1.3,2013-07-27 10:15:00,
2013-07-27 03:30:00,56.3,52.0,30.59,ENE,76,0.0,0.0,84,0.00,,,-99.99,wx200d/1.3,2013-07-27 10:30:00,
2013-07-27 03:45:00,56.3,52.0,30.59,ENE,67,0.0,0.0,84,0.00,,,-99.99,wx200d/1.3,2013-07-27 10:45:00,
2013-07-27 04:00:00,56.3,52.0,30.59,West,278,0.0,0.0,84,0.00,,,-99.99,wx200d/1.3,2013-07-27 11:00:00,
2013-07-27 04:15:00,56.3,52.0,30.59,West,266,0.0,0.0,84,0.00,,,-99.99,wx200d/1.3,2013-07-27 11:15:00,
2013-07-27 04:30:00,56.3,52.0,30.56,West,266,0.0,0.0,84,0.00,,,-99.99,wx200d/1.3,2013-07-27 11:30:00,
2013-07-27 04:45:00,56.5,52.0,30.56,East,82,0.0,0.0,84,0.00,,,-99.99,wx200d/1.3,2013-07-27 11:45:00,
2013-07-27 05:00:00,56.3,52.0,30.56,East,96,0.0,0.0,84,0.00,,,-99.99,wx200d/1.3,2013-07-27 12:00:00,
2013-07-27 05:15:00,56.1,50.0,30.56,West,260,0.0,0.0,84,0.00,,,-99.99,wx200d/1.3,2013-07-27 12:15:00,
2013-07-27 05:30:00,56.1,50.0,30.56,WNW,298,0.0,0.0,84,0.00,,,-99.99,wx200d/1.3,2013-07-27 12:30:00,
2013-07-27 05:45:00,56.1,50.0,30.59,West,270,0.0,0.0,84,0.00,,,-99.99,wx200d/1.3,2013-07-27 12:45:00,
2013-07-27 06:00:00,56.3,54.0,30.59,WNW,287,0.0,0.0,85,0.00,,,-99.99,wx200d/1.3,2013-07-27 13:00:00,
2013-07-27 06:15:00,56.3,54.0,30.59,ENE,72,0.0,0.0,85,0.00,,,-99.99,wx200d/1.3,2013-07-27 13:15:00,
2013-07-27 06:30:00,56.3,54.0,30.59,WSW,249,0.0,0.0,85,0.00,,,-99.99,wx200d/1.3,2013-07-27 13:30:00,
2013-07-27 06:45:00,56.5,54.0,30.59,WNW,286,0.0,0.0,85,0.00,,,-99.99,wx200d/1.3,2013-07-27 13:45:00,
2013-07-27 07:00:00,56.5,52.0,30.59,ENE,73,0.0,0.0,84,0.00,,,-99.99,wx200d/1.3,2013-07-27 14:00:00,
2013-07-27 07:15:00,56.8,52.0,30.59,West,268,0.0,0.0,84,0.00,,,-99.99,wx200d/1.3,2013-07-27 14:15:00,
2013-07-27 07:30:00,57.0,52.0,30.59,West,266,0.0,0.0,84,0.00,,,-99.99,wx200d/1.3,2013-07-27 14:30:00,
2013-07-27 07:45:00,57.6,52.0,30.62,West,281,0.0,0.0,82,0.00,,,-99.99,wx200d/1.3,2013-07-27 14:45:00,
2013-07-27 08:00:00,58.3,54.0,30.62,NE,51,0.0,0.0,82,0.00,,,-99.99,wx200d/1.3,2013-07-27 15:00:00,
2013-07-27 08:15:00,58.8,52.0,30.59,West,269,0.0,0.0,77,0.00,,,-99.99,wx200d/1.3,2013-07-27 15:15:00,
2013-07-27 08:30:00,59.5,48.0,30.59,West,274,0.0,0.0,69,0.00,,,-99.99,wx200d/1.3,2013-07-27 15:30:00,
2013-07-27 08:45:00,60.6,46.0,30.59,East,83,0.0,0.0,59,0.00,,,-99.99,wx200d/1.3,2013-07-27 15:45:00,
2013-07-27 09:00:00,61.3,46.0,30.59,West,267,0.0,0.0,57,0.00,,,-99.99,wx200d/1.3,2013-07-27 16:00:00,
2013-07-27 09:15:00,61.9,45.0,30.59,West,279,0.0,0.0,53,0.00,,,-99.99,wx200d/1.3,2013-07-27 16:15:00,
2013-07-27 09:30:00,62.8,43.0,30.59,East,90,0.0,3.6,48,0.00,,,-99.99,wx200d/1.3,2013-07-27 16:30:00,
2013-07-27 09:45:00,62.2,43.0,30.59,WNW,284,0.0,0.0,49,0.00,,,-99.99,wx200d/1.3,2013-07-27 16:45:00,
2013-07-27 10:00:00,62.2,45.0,30.59,West,279,0.0,0.0,51,0.00,,,-99.99,wx200d/1.3,2013-07-27 17:00:00,
2013-07-27 10:15:00,63.3,43.0,30.59,West,268,0.0,0.0,48,0.00,,,-99.99,wx200d/1.3,2013-07-27 17:15:00,
2013-07-27 10:30:00,64.2,43.0,30.59,WSW,256,0.0,0.0,44,0.00,,,-99.99,wx200d/1.3,2013-07-27 17:30:00,
2013-07-27 10:45:00,65.1,41.0,30.59,West,272,0.0,0.0,43,0.00,,,-99.99,wx200d/1.3,2013-07-27 17:45:00,
2013-07-27 11:00:00,65.1,39.0,30.56,West,280,0.0,0.0,39,0.00,,,-99.99,wx200d/1.3,2013-07-27 18:00:00,
2013-07-27 11:15:00,64.8,41.0,30.59,West,278,0.0,0.0,41,0.00,,,-99.99,wx200d/1.3,2013-07-27 18:15:00,
2013-07-27 11:30:00,65.7,39.0,30.59,NNW,335,0.0,0.0,38,0.00,,,-99.99,wx200d/1.3,2013-07-27 18:30:00,
2013-07-27 11:45:00,66.0,39.0,30.59,West,268,0.0,0.0,37,0.00,,,-99.99,wx200d/1.3,2013-07-27 18:45:00,
2013-07-27 12:00:00,66.6,37.0,30.59,ENE,57,0.0,0.0,35,0.00,,,-99.99,wx200d/1.3,2013-07-27 19:00:00,
2013-07-27 12:15:00,67.1,39.0,30.59,West,274,0.0,0.0,34,0.00,,,-99.99,wx200d/1.3,2013-07-27 19:15:00,
2013-07-27 12:30:00,67.3,39.0,30.59,West,274,0.0,0.0,34,0.00,,,-99.99,wx200d/1.3,2013-07-27 19:30:00,
2013-07-27 12:45:00,67.6,39.0,30.59,WSW,255,0.0,0.0,34,0.00,,,-99.99,wx200d/1.3,2013-07-27 19:45:00,
2013-07-27 13:00:00,68.4,37.0,30.56,West,276,0.0,0.0,33,0.00,,,-99.99,wx200d/1.3,2013-07-27 20:00:00,
2013-07-27 13:15:00,68.4,37.0,30.56,West,269,0.0,2.2,33,0.00,,,-99.99,wx200d/1.3,2013-07-27 20:15:00,
2013-07-27 13:30:00,69.3,39.0,30.56,WNW,293,3.1,3.1,32,0.00,,,-99.99,wx200d/1.3,2013-07-27 20:30:00,
2013-07-27 13:45:00,71.6,37.0,30.56,East,92,0.0,0.0,28,0.00,,,-99.99,wx200d/1.3,2013-07-27 20:45:00,
2013-07-27 14:00:00,70.5,34.0,30.56,East,89,0.0,0.0,27,0.00,,,-99.99,wx200d/1.3,2013-07-27 21:00:00,
2013-07-27 14:15:00,69.6,36.0,30.53,West,270,0.0,0.0,29,0.00,,,-99.99,wx200d/1.3,2013-07-27 21:15:00,
2013-07-27 14:30:00,70.9,36.0,30.56,West,267,2.2,2.7,27,0.00,,,-99.99,wx200d/1.3,2013-07-27 21:30:00,
2013-07-27 14:45:00,71.1,36.0,30.53,West,265,0.0,3.1,26,0.00,,,-99.99,wx200d/1.3,2013-07-27 21:45:00,
2013-07-27 15:00:00,72.0,34.0,30.53,WNW,285,0.0,3.1,25,0.00,,,-99.99,wx200d/1.3,2013-07-27 22:00:00,
2013-07-27 15:15:00,71.6,36.0,30.53,ENE,63,0.0,0.0,26,0.00,,,-99.99,wx200d/1.3,2013-07-27 22:15:00,
2013-07-27 15:30:00,72.0,34.0,30.50,West,272,2.2,2.7,25,0.00,,,-99.99,wx200d/1.3,2013-07-27 22:30:00,
2013-07-27 15:45:00,71.1,34.0,30.50,West,281,0.0,0.0,25,0.00,,,-99.99,wx200d/1.3,2013-07-27 22:45:00,
2013-07-27 16:00:00,68.5,32.0,30.50,WNW,291,0.0,0.0,27,0.00,,,-99.99,wx200d/1.3,2013-07-27 23:00:00,
2013-07-27 16:15:00,68.0,34.0,30.50,West,263,0.0,0.0,28,0.00,,,-99.99,wx200d/1.3,2013-07-27 23:15:00,
2013-07-27 16:30:00,66.6,36.0,30.47,SW,214,0.0,0.0,32,0.00,,,-99.99,wx200d/1.3,2013-07-27 23:30:00,
2013-07-27 16:45:00,65.8,36.0,30.47,West,281,0.0,0.0,33,0.00,,,-99.99,wx200d/1.3,2013-07-27 23:45:00,
2013-07-27 17:00:00,64.9,36.0,30.50,East,84,0.0,0.0,34,0.00,,,-99.99,wx200d/1.3,2013-07-28 00:00:00,
2013-07-27 17:15:00,64.6,37.0,30.47,West,265,0.0,0.0,36,0.00,,,-99.99,wx200d/1.3,2013-07-28 00:15:00,
2013-07-27 17:30:00,64.4,37.0,30.47,ENE,77,0.0,0.0,36,0.00,,,-99.99,wx200d/1.3,2013-07-28 00:30:00,
2013-07-27 17:45:00,62.4,39.0,30.50,East,87,2.7,2.7,42,0.00,,,-99.99,wx200d/1.3,2013-07-28 00:45:00,
2013-07-27 18:00:00,61.7,43.0,30.47,NW,308,2.7,2.7,47,0.00,,,-99.99,wx200d/1.3,2013-07-28 01:00:00,
2013-07-27 18:15:00,60.6,43.0,30.47,East,79,2.7,0.0,50,0.00,,,-99.99,wx200d/1.3,2013-07-28 01:15:00,
2013-07-27 18:30:00,60.6,43.0,30.45,West,273,0.0,4.5,51,0.00,,,-99.99,wx200d/1.3,2013-07-28 01:30:00,
2013-07-27 18:45:00,60.1,45.0,30.47,East,92,0.0,3.6,54,0.00,,,-99.99,wx200d/1.3,2013-07-28 01:45:00,
2013-07-27 19:00:00,59.4,45.0,30.45,East,85,0.0,0.0,59,0.00,,,-99.99,wx200d/1.3,2013-07-28 02:00:00,
2013-07-27 19:15:00,59.0,46.0,30.47,WSW,247,0.0,0.0,61,0.00,,,-99.99,wx200d/1.3,2013-07-28 02:15:00,
2013-07-27 19:30:00,58.6,46.0,30.47,WNW,287,0.0,5.8,64,0.00,,,-99.99,wx200d/1.3,2013-07-28 02:30:00,
2013-07-27 19:45:00,58.3,48.0,30.47,West,280,2.2,0.0,66,0.00,,,-99.99,wx200d/1.3,2013-07-28 02:45:00,
2013-07-27 20:00:00,58.5,48.0,30.50,West,276,0.0,0.0,67,0.00,,,-99.99,wx200d/1.3,2013-07-28 03:00:00,
2013-07-27 20:15:00,58.3,48.0,30.47,East,79,2.2,0.0,67,0.00,,,-99.99,wx200d/1.3,2013-07-28 03:15:00,
2013-07-27 20:30:00,58.1,48.0,30.47,NNW,337,0.0,0.0,67,0.00,,,-99.99,wx200d/1.3,2013-07-28 03:30:00,
2013-07-27 20:45:00,57.9,46.0,30.47,WNW,291,0.0,0.0,68,0.00,,,-99.99,wx200d/1.3,2013-07-28 03:45:00,
2013-07-27 21:00:00,58.1,48.0,30.47,West,271,0.0,0.0,68,0.00,,,-99.99,wx200d/1.3,2013-07-28 04:00:00,
2013-07-27 21:15:00,57.9,46.0,30.47,West,262,0.0,0.0,69,0.00,,,-99.99,wx200d/1.3,2013-07-28 04:15:00,
2013-07-27 21:30:00,57.7,48.0,30.47,WNW,293,0.0,0.0,71,0.00,,,-99.99,wx200d/1.3,2013-07-28 04:30:00,
2013-07-27 21:45:00,57.6,48.0,30.50,West,273,0.0,0.0,72,0.00,,,-99.99,wx200d/1.3,2013-07-28 04:45:00,
2013-07-27 22:00:00,57.6,48.0,30.47,NE,38,0.0,0.0,72,0.00,,,-99.99,wx200d/1.3,2013-07-28 05:00:00,
2013-07-27 22:15:00,57.4,48.0,30.50,ENE,63,0.0,0.0,73,0.00,,,-99.99,wx200d/1.3,2013-07-28 05:15:00,
2013-07-27 22:30:00,57.2,48.0,30.47,North,357,0.0,0.0,74,0.00,,,-99.99,wx200d/1.3,2013-07-28 05:30:00,
2013-07-27 22:45:00,57.2,50.0,30.50,West,281,0.0,0.0,75,0.00,,,-99.99,wx200d/1.3,2013-07-28 05:45:00,
2013-07-27 23:00:00,57.2,50.0,30.47,West,277,0.0,0.0,75,0.00,,,-99.99,wx200d/1.3,2013-07-28 06:00:00,
2013-07-27 23:15:00,57.0,50.0,30.47,ENE,75,0.0,0.0,76,0.00,,,-99.99,wx200d/1.3,2013-07-28 06:15:00,
2013-07-27 23:30:00,57.2,50.0,30.47,West,280,0.0,0.0,76,0.00,,,-99.99,wx200d/1.3,2013-07-28 06:30:00,
2013-07-27 23:45:00,57.0,50.0,30.47,WNW,283,0.0,0.0,78,0.00,,,-99.99,wx200d/1.3,2013-07-28 06:45:00,